Archival Weather

Prince Abdulmajeed Bin Abdula

Prince Abdulmajeed Bin Abdula, Saudi Arabia (OEAO)

Report from: Monday, May 23, 2022 11:00 PM UTC
Current time: Tuesday, August 16, 2022 7:35 AM UTC

Current weather
Weather history
Weather forecast

Temperature29.0°C (84.2°F)
Heat index27.4°C (81.3°F)
Dew point-5.0°C (23.0°F)
Winds 8 kts (4.1 m/s, 9.2 mph) Northeast (50°)
Clouds Sky clear
Altimeter29.85 in.Hg (1011 mB)
Relative humidity11 %
Density altitude1,757 ft. (536 m)
Remarks Ceiling and visibility OK
No significant changes expected in the next two hours
Flight conditions Visual Meteorological Conditions
Raw dataOEAO 232300Z 05008KT CAVOK 29/M05 Q1011 NOSIG
An error has occurred. This application may no longer respond until reloaded. Reload 🗙